createdAt,value
2017-10-16T00:00:26.388Z,68.96
2017-10-16T00:01:33.143Z,68.93
2017-10-16T00:02:39.898Z,68.97
2017-10-16T00:03:46.622Z,69.02
2017-10-16T00:04:53.441Z,69.03
2017-10-16T00:06:00.254Z,69.11
2017-10-16T00:07:07.003Z,69.12
2017-10-16T00:08:13.757Z,69.14
2017-10-16T00:09:20.631Z,69.16
2017-10-16T00:10:27.390Z,69.19
2017-10-16T00:11:34.162Z,69.25
2017-10-16T00:12:40.938Z,69.27
2017-10-16T00:13:47.657Z,69.34
2017-10-16T00:14:54.431Z,69.33
2017-10-16T00:16:01.163Z,69.28
2017-10-16T00:17:07.897Z,69.31
2017-10-16T00:18:14.632Z,69.35
2017-10-16T00:19:21.403Z,69.34
2017-10-16T00:20:28.177Z,69.35
2017-10-16T00:21:35.127Z,69.44
2017-10-16T00:22:41.853Z,69.46
2017-10-16T00:23:48.597Z,69.48
2017-10-16T00:24:55.353Z,69.50
2017-10-16T00:26:02.089Z,69.51
2017-10-16T00:27:08.821Z,69.50
2017-10-16T00:28:15.589Z,69.58
2017-10-16T00:29:22.298Z,69.62
2017-10-16T00:30:29.132Z,69.57
2017-10-16T00:31:36.051Z,69.60
2017-10-16T00:32:42.858Z,69.62
2017-10-16T00:33:49.654Z,69.65
2017-10-16T00:34:56.454Z,69.71
2017-10-16T00:36:03.240Z,69.78
2017-10-16T00:37:09.998Z,69.83
2017-10-16T00:38:16.806Z,69.91
2017-10-16T00:39:23.534Z,69.92
2017-10-16T00:40:30.382Z,69.97
2017-10-16T00:41:37.110Z,69.99
2017-10-16T00:42:44.217Z,69.98
2017-10-16T00:43:50.982Z,70.08
2017-10-16T00:44:57.829Z,70.10
2017-10-16T00:46:04.680Z,70.15
2017-10-16T00:47:11.545Z,70.14
2017-10-16T00:48:18.325Z,70.23
2017-10-16T00:49:25.090Z,70.32
2017-10-16T00:50:31.902Z,70.37
2017-10-16T00:51:38.649Z,70.40
2017-10-16T00:52:45.397Z,70.40
2017-10-16T00:53:52.198Z,70.43
2017-10-16T00:54:58.913Z,70.52
2017-10-16T00:56:05.685Z,70.54
2017-10-16T00:57:12.654Z,70.62
2017-10-16T00:58:19.417Z,70.66
2017-10-16T00:59:26.274Z,70.73
2017-10-16T01:00:33.148Z,70.74
2017-10-16T01:01:40.005Z,70.78
2017-10-16T01:02:46.782Z,70.83
2017-10-16T01:03:53.554Z,70.90
2017-10-16T01:05:00.344Z,70.96
2017-10-16T01:06:07.110Z,71.03
2017-10-16T01:07:13.913Z,71.03
2017-10-16T01:08:20.829Z,71.10
2017-10-16T01:09:27.573Z,71.15
2017-10-16T01:10:34.474Z,71.20
2017-10-16T01:11:41.241Z,71.26
2017-10-16T01:12:48.077Z,71.32
2017-10-16T01:13:54.854Z,71.36
2017-10-16T01:15:01.643Z,71.37
2017-10-16T01:16:08.477Z,71.39
2017-10-16T01:17:15.286Z,71.41
2017-10-16T01:18:22.069Z,71.48
2017-10-16T01:19:28.835Z,71.54
2017-10-16T01:20:35.584Z,71.57
2017-10-16T01:21:42.383Z,71.63
2017-10-16T01:22:49.218Z,71.67
2017-10-16T01:23:55.935Z,71.68
2017-10-16T01:25:02.694Z,71.67
2017-10-16T01:26:09.494Z,71.73
2017-10-16T01:27:16.271Z,71.79
2017-10-16T01:28:23.041Z,71.87
2017-10-16T01:29:29.886Z,71.96
2017-10-16T01:30:36.689Z,72.07
2017-10-16T01:31:43.537Z,72.15
2017-10-16T01:32:50.405Z,72.19
2017-10-16T01:33:57.278Z,72.20
2017-10-16T01:35:04.126Z,72.34
2017-10-16T01:36:10.987Z,72.39
2017-10-16T01:37:17.854Z,72.48
2017-10-16T01:38:24.832Z,72.55
2017-10-16T01:39:31.705Z,72.64
2017-10-16T01:40:38.541Z,72.71
2017-10-16T01:41:45.377Z,72.78
2017-10-16T01:42:52.338Z,72.76
2017-10-16T01:43:59.090Z,72.88
2017-10-16T01:45:05.846Z,73.01
2017-10-16T01:46:12.718Z,73.06
2017-10-16T01:47:19.562Z,73.13
2017-10-16T01:48:26.407Z,73.19
2017-10-16T01:49:33.233Z,73.28
2017-10-16T01:50:40.008Z,73.31
2017-10-16T01:51:46.858Z,73.34
2017-10-16T01:52:53.745Z,73.34
2017-10-16T01:54:00.642Z,73.38
2017-10-16T01:55:07.445Z,73.47
2017-10-16T01:56:14.218Z,73.58
2017-10-16T01:57:21.062Z,73.71
2017-10-16T01:58:27.933Z,73.74
2017-10-16T01:59:34.806Z,73.81
2017-10-16T02:00:41.682Z,73.88
2017-10-16T02:01:48.546Z,73.97
2017-10-16T02:02:55.401Z,74.03
2017-10-16T02:04:02.134Z,74.14
2017-10-16T02:05:08.886Z,74.22
2017-10-16T02:06:15.629Z,74.28
2017-10-16T02:07:22.378Z,74.31
2017-10-16T02:08:29.113Z,74.34
2017-10-16T02:09:35.910Z,74.40
2017-10-16T02:10:42.702Z,74.46
2017-10-16T02:11:49.426Z,74.52
2017-10-16T02:12:56.209Z,74.57
2017-10-16T02:14:02.941Z,74.62
2017-10-16T02:15:09.682Z,74.70
2017-10-16T02:16:16.437Z,74.70
2017-10-16T02:17:23.578Z,74.75
2017-10-16T02:18:29.834Z,74.84
2017-10-16T02:19:36.665Z,74.84
2017-10-16T02:20:43.425Z,74.89
2017-10-16T02:21:50.170Z,74.98
2017-10-16T02:22:57.002Z,75.04
2017-10-16T02:24:03.726Z,75.15
2017-10-16T02:25:10.555Z,75.21
2017-10-16T02:26:17.487Z,75.26
2017-10-16T02:27:24.273Z,75.28
2017-10-16T02:28:31.161Z,75.30
2017-10-16T02:29:37.893Z,75.36
2017-10-16T02:30:44.615Z,75.37
2017-10-16T02:31:51.431Z,75.41
2017-10-16T02:32:58.217Z,75.41
2017-10-16T02:34:04.994Z,75.44
2017-10-16T02:35:11.787Z,75.51
2017-10-16T02:36:18.603Z,75.54
2017-10-16T02:37:25.346Z,75.61
2017-10-16T02:38:32.170Z,75.68
2017-10-16T02:39:38.918Z,75.69
2017-10-16T02:40:45.663Z,75.75
2017-10-16T02:41:52.390Z,75.77
2017-10-16T02:42:59.160Z,75.81
2017-10-16T02:44:05.889Z,75.87
2017-10-16T02:45:12.630Z,75.92
2017-10-16T02:46:19.452Z,75.98
2017-10-16T02:47:26.177Z,75.99
2017-10-16T02:48:32.946Z,76.03
2017-10-16T02:49:39.799Z,76.06
2017-10-16T02:50:46.530Z,76.07
2017-10-16T02:51:53.322Z,76.12
2017-10-16T02:53:00.245Z,76.15
2017-10-16T02:54:06.983Z,76.16
2017-10-16T02:55:13.737Z,76.22
2017-10-16T02:56:20.527Z,76.26
2017-10-16T02:57:27.270Z,76.29
2017-10-16T02:58:34.043Z,76.30
2017-10-16T02:59:40.770Z,76.34
2017-10-16T03:00:47.489Z,76.34
2017-10-16T03:01:54.226Z,76.35
2017-10-16T03:03:00.990Z,76.37
2017-10-16T03:04:07.867Z,76.43
2017-10-16T03:05:14.630Z,76.45
2017-10-16T03:06:21.396Z,76.46
2017-10-16T03:07:28.427Z,76.46
2017-10-16T03:08:35.186Z,76.43
2017-10-16T03:09:41.962Z,76.46
2017-10-16T03:10:48.828Z,76.48
2017-10-16T03:11:55.637Z,76.45
2017-10-16T03:13:02.397Z,76.46
2017-10-16T03:14:09.159Z,76.49
2017-10-16T03:15:15.986Z,76.56
2017-10-16T03:16:22.759Z,76.62
2017-10-16T03:17:29.582Z,76.63
2017-10-16T03:18:36.331Z,76.66
2017-10-16T03:19:43.110Z,76.69
2017-10-16T03:20:49.882Z,76.69
2017-10-16T03:21:56.644Z,76.72
2017-10-16T03:23:03.397Z,76.75
2017-10-16T03:24:10.181Z,76.73
2017-10-16T03:25:17.014Z,76.74
2017-10-16T03:26:23.752Z,76.80
2017-10-16T03:27:30.509Z,76.80
2017-10-16T03:28:37.262Z,76.82
2017-10-16T03:29:44.014Z,76.82
2017-10-16T03:30:50.834Z,76.84
2017-10-16T03:31:57.602Z,76.85
2017-10-16T03:33:04.368Z,76.85
2017-10-16T03:34:11.266Z,76.86
2017-10-16T03:35:18.090Z,76.86
2017-10-16T03:36:25.205Z,76.85
2017-10-16T03:37:31.965Z,76.87
2017-10-16T03:38:38.734Z,76.86
2017-10-16T03:39:45.581Z,76.87
2017-10-16T03:40:52.374Z,76.85
2017-10-16T03:41:59.127Z,76.86
2017-10-16T03:43:05.909Z,76.84
2017-10-16T03:44:12.936Z,76.85
2017-10-16T03:45:19.678Z,76.83
2017-10-16T03:46:26.433Z,76.87
2017-10-16T03:47:33.206Z,76.89
2017-10-16T03:48:40.017Z,76.90
2017-10-16T03:49:46.832Z,76.90
2017-10-16T03:50:53.699Z,76.90
2017-10-16T03:52:00.465Z,76.93
2017-10-16T03:53:07.230Z,76.89
2017-10-16T03:54:14.091Z,76.89
2017-10-16T03:55:20.877Z,76.86
2017-10-16T03:56:27.677Z,76.92
2017-10-16T03:57:34.423Z,76.92
2017-10-16T03:58:41.202Z,76.93
2017-10-16T03:59:47.961Z,77.00
2017-10-16T04:00:54.809Z,76.96
2017-10-16T04:02:01.902Z,76.96
2017-10-16T04:03:08.701Z,76.95
2017-10-16T04:04:15.483Z,76.91
2017-10-16T04:05:22.268Z,76.91
2017-10-16T04:06:29.086Z,76.90
2017-10-16T04:07:35.855Z,76.94
2017-10-16T04:08:42.605Z,76.95
2017-10-16T04:09:49.370Z,76.96
2017-10-16T04:10:56.140Z,76.98
2017-10-16T04:12:02.925Z,76.96
2017-10-16T04:13:09.698Z,76.98
2017-10-16T04:14:16.469Z,77.00
2017-10-16T04:15:23.313Z,77.01
2017-10-16T04:16:30.062Z,77.04
2017-10-16T04:17:36.845Z,77.02
2017-10-16T04:18:43.643Z,77.03
2017-10-16T04:19:50.423Z,77.07
2017-10-16T04:20:57.548Z,77.10
2017-10-16T04:22:04.298Z,77.10
2017-10-16T04:23:11.089Z,77.12
2017-10-16T04:24:17.857Z,77.15
2017-10-16T04:25:24.615Z,77.15
2017-10-16T04:26:31.510Z,77.15
2017-10-16T04:27:38.326Z,77.15
2017-10-16T04:28:45.170Z,77.16
2017-10-16T04:29:51.932Z,77.22
2017-10-16T04:30:58.710Z,77.22
2017-10-16T04:32:05.938Z,77.26
2017-10-16T04:33:12.674Z,77.26
2017-10-16T04:34:19.534Z,77.27
2017-10-16T04:35:26.374Z,77.28
2017-10-16T04:36:33.182Z,77.27
2017-10-16T04:37:39.926Z,77.32
2017-10-16T04:38:46.719Z,77.31
2017-10-16T04:39:53.510Z,77.32
2017-10-16T04:41:00.298Z,77.36
2017-10-16T04:42:07.062Z,77.37
2017-10-16T04:43:13.839Z,77.37
2017-10-16T04:44:20.602Z,77.38
2017-10-16T04:45:27.430Z,77.39
2017-10-16T04:46:34.232Z,77.39
2017-10-16T04:47:41.030Z,77.45
2017-10-16T04:48:47.783Z,77.46
2017-10-16T04:49:54.627Z,77.50
2017-10-16T04:51:01.392Z,77.56
2017-10-16T04:52:08.182Z,77.59
2017-10-16T04:53:14.990Z,77.58
2017-10-16T04:54:21.746Z,77.58
2017-10-16T04:55:28.507Z,77.62
2017-10-16T04:56:35.302Z,77.68
2017-10-16T04:57:42.085Z,77.69
2017-10-16T04:58:48.825Z,77.69
2017-10-16T04:59:55.564Z,77.67
2017-10-16T05:01:02.294Z,77.70
2017-10-16T05:02:09.173Z,77.70
2017-10-16T05:03:15.975Z,77.79
2017-10-16T05:04:23.023Z,77.81
2017-10-16T05:05:29.829Z,77.87
2017-10-16T05:06:36.606Z,77.85
2017-10-16T05:07:43.443Z,77.82
2017-10-16T05:08:50.224Z,77.82
2017-10-16T05:09:57.037Z,77.85
2017-10-16T05:11:03.835Z,77.92
2017-10-16T05:12:10.686Z,77.88
2017-10-16T05:13:17.452Z,77.86
2017-10-16T05:14:24.218Z,77.89
2017-10-16T05:15:31.055Z,77.91
2017-10-16T05:16:37.842Z,77.89
2017-10-16T05:17:44.650Z,77.92
2017-10-16T05:18:51.432Z,77.98
2017-10-16T05:19:58.510Z,78.01
2017-10-16T05:21:05.427Z,78.04
2017-10-16T05:22:12.261Z,78.03
2017-10-16T05:23:19.070Z,78.00
2017-10-16T05:24:25.870Z,77.97
2017-10-16T05:25:32.662Z,78.00
2017-10-16T05:26:39.474Z,77.99
2017-10-16T05:27:46.351Z,77.96
2017-10-16T05:28:53.141Z,77.97
2017-10-16T05:29:59.966Z,77.99
2017-10-16T05:31:06.734Z,77.98
2017-10-16T05:32:13.546Z,77.97
2017-10-16T05:33:20.467Z,77.93
2017-10-16T05:34:27.364Z,77.96
2017-10-16T05:35:34.175Z,77.98
2017-10-16T05:36:40.965Z,77.96
2017-10-16T05:37:47.761Z,77.97
2017-10-16T05:38:54.646Z,77.93
2017-10-16T05:40:01.437Z,77.94
2017-10-16T05:41:08.215Z,77.90
2017-10-16T05:42:15.001Z,77.89
2017-10-16T05:43:21.988Z,77.90
2017-10-16T05:44:28.785Z,77.93
2017-10-16T05:45:35.578Z,77.95
2017-10-16T05:46:42.474Z,77.95
2017-10-16T05:47:49.506Z,77.95
2017-10-16T05:48:56.299Z,77.96
2017-10-16T05:50:03.179Z,77.92
2017-10-16T05:51:10.004Z,77.98
2017-10-16T05:52:16.898Z,77.98
2017-10-16T05:53:23.754Z,78.01
2017-10-16T05:54:30.641Z,77.99
2017-10-16T05:55:37.474Z,78.00
2017-10-16T05:56:44.389Z,78.01
2017-10-16T05:57:51.197Z,78.00
2017-10-16T05:58:57.998Z,78.01
2017-10-16T06:00:04.798Z,78.00
2017-10-16T06:01:11.610Z,77.97
2017-10-16T06:02:18.498Z,77.96
2017-10-16T06:03:25.297Z,77.94
2017-10-16T06:04:32.090Z,77.96
2017-10-16T06:05:38.881Z,77.97
2017-10-16T06:06:45.746Z,77.97
2017-10-16T06:07:52.609Z,77.99
2017-10-16T06:08:59.587Z,78.01
2017-10-16T06:10:06.461Z,78.03
2017-10-16T06:11:13.283Z,78.04
2017-10-16T06:12:20.071Z,78.01
2017-10-16T06:13:26.902Z,78.05
2017-10-16T06:14:33.734Z,78.08
2017-10-16T06:15:40.578Z,78.09
2017-10-16T06:16:47.531Z,78.13
2017-10-16T06:17:54.419Z,78.13
2017-10-16T06:19:01.282Z,78.14
2017-10-16T06:20:08.337Z,78.19
2017-10-16T06:21:15.170Z,78.22
2017-10-16T06:22:21.976Z,78.28
2017-10-16T06:23:28.904Z,78.29
2017-10-16T06:24:35.738Z,78.32
2017-10-16T06:25:42.551Z,78.36
2017-10-16T06:26:49.344Z,78.38
2017-10-16T06:27:56.213Z,78.39
2017-10-16T06:29:03.150Z,78.44
2017-10-16T06:30:09.999Z,78.45
2017-10-16T06:31:16.794Z,78.51
2017-10-16T06:32:23.598Z,78.48
2017-10-16T06:33:30.435Z,78.56
2017-10-16T06:34:37.210Z,78.62
2017-10-16T06:35:43.995Z,78.73
2017-10-16T06:36:50.807Z,78.77
2017-10-16T06:37:57.719Z,78.79
2017-10-16T06:39:04.550Z,78.84
2017-10-16T06:40:11.462Z,78.84
2017-10-16T06:41:18.262Z,78.89
2017-10-16T06:42:25.039Z,78.99
2017-10-16T06:43:31.916Z,79.03
2017-10-16T06:44:38.738Z,79.11
2017-10-16T06:45:45.469Z,79.16
2017-10-16T06:46:52.327Z,79.15
2017-10-16T06:47:59.190Z,79.14
2017-10-16T06:49:06.137Z,79.20
2017-10-16T06:50:12.921Z,79.28
2017-10-16T06:51:19.735Z,79.34
2017-10-16T06:52:26.482Z,79.41
2017-10-16T06:53:33.533Z,79.44
2017-10-16T06:54:40.302Z,79.46
2017-10-16T06:55:47.048Z,79.48
2017-10-16T06:56:53.834Z,79.54
2017-10-16T06:58:00.638Z,79.58
2017-10-16T06:59:07.490Z,79.61
2017-10-16T07:00:14.298Z,79.59
2017-10-16T07:01:21.063Z,79.61
2017-10-16T07:02:27.849Z,79.59
2017-10-16T07:03:34.612Z,79.65
2017-10-16T07:04:41.430Z,79.71
2017-10-16T07:05:48.154Z,79.75
2017-10-16T07:06:54.902Z,79.79
2017-10-16T07:08:01.654Z,79.82
2017-10-16T07:09:08.403Z,79.88
2017-10-16T07:10:15.249Z,79.89
2017-10-16T07:11:21.966Z,79.87
2017-10-16T07:12:28.874Z,79.92
2017-10-16T07:13:35.613Z,79.94
2017-10-16T07:14:42.454Z,80.00
2017-10-16T07:15:49.263Z,80.09
2017-10-16T07:16:56.151Z,80.18
2017-10-16T07:18:02.874Z,80.20
2017-10-16T07:19:09.622Z,80.28
2017-10-16T07:20:16.398Z,80.31
2017-10-16T07:21:23.130Z,80.34
2017-10-16T07:22:29.942Z,80.39
2017-10-16T07:23:36.686Z,80.41
2017-10-16T07:24:43.423Z,80.48
2017-10-16T07:25:50.189Z,80.55
2017-10-16T07:26:57.062Z,80.60
2017-10-16T07:28:03.777Z,80.62
2017-10-16T07:29:10.533Z,80.74
2017-10-16T07:30:17.460Z,80.85
2017-10-16T07:31:24.237Z,80.94
2017-10-16T07:32:31.084Z,80.98
2017-10-16T07:33:37.816Z,81.06
2017-10-16T07:34:44.598Z,81.12
2017-10-16T07:35:51.358Z,81.23
2017-10-16T07:36:58.114Z,81.27
2017-10-16T07:38:04.841Z,81.41
2017-10-16T07:39:11.602Z,81.66
2017-10-16T07:40:18.440Z,81.84
2017-10-16T07:41:25.250Z,82.02
2017-10-16T07:42:32.223Z,82.17
2017-10-16T07:43:38.946Z,82.28
2017-10-16T07:44:45.735Z,82.34
2017-10-16T07:45:52.441Z,82.45
2017-10-16T07:46:59.214Z,82.53
2017-10-16T07:48:06.030Z,82.65
2017-10-16T07:49:12.818Z,82.67
2017-10-16T07:50:19.578Z,82.68
2017-10-16T07:51:26.503Z,82.71
2017-10-16T07:52:33.255Z,82.72
2017-10-16T07:53:40.010Z,82.76
2017-10-16T07:54:46.790Z,82.81
2017-10-16T07:55:53.563Z,82.88
2017-10-16T07:57:00.319Z,82.94
2017-10-16T07:58:07.125Z,83.03
2017-10-16T07:59:13.890Z,83.12
2017-10-16T08:00:20.654Z,83.18
2017-10-16T08:01:27.438Z,83.26
2017-10-16T08:02:34.219Z,83.35
2017-10-16T08:03:46.093Z,83.47
2017-10-16T08:04:47.914Z,83.51
2017-10-16T08:05:54.718Z,83.66
2017-10-16T08:07:01.453Z,83.75
2017-10-16T08:08:08.226Z,83.87
2017-10-16T08:09:14.963Z,83.93
2017-10-16T08:10:21.713Z,84.01
2017-10-16T08:11:28.461Z,84.08
2017-10-16T08:12:35.204Z,84.21
2017-10-16T08:13:42.005Z,84.37
2017-10-16T08:14:48.740Z,84.47
2017-10-16T08:15:55.884Z,84.57
2017-10-16T08:17:02.659Z,84.66
2017-10-16T08:18:09.475Z,84.77
2017-10-16T08:19:16.210Z,84.87
2017-10-16T08:20:22.971Z,84.94
2017-10-16T08:21:29.762Z,85.08
2017-10-16T08:22:36.506Z,85.19
2017-10-16T08:23:43.346Z,85.27
2017-10-16T08:24:50.164Z,85.37
2017-10-16T08:25:57.088Z,85.47
2017-10-16T08:27:03.977Z,85.63
2017-10-16T08:28:10.837Z,85.75
2017-10-16T08:29:17.658Z,85.81
2017-10-16T08:30:24.477Z,85.97
2017-10-16T08:31:31.278Z,86.05
2017-10-16T08:32:38.033Z,86.20
2017-10-16T08:33:44.910Z,86.30
2017-10-16T08:34:51.705Z,86.45
2017-10-16T08:35:58.470Z,86.58
2017-10-16T08:37:05.362Z,86.67
2017-10-16T08:38:12.470Z,86.82
2017-10-16T08:39:19.260Z,86.94
2017-10-16T08:40:26.130Z,87.04
2017-10-16T08:41:32.998Z,87.18
2017-10-16T08:42:40.173Z,87.33
2017-10-16T08:43:47.001Z,87.47
2017-10-16T08:44:53.822Z,87.64
2017-10-16T08:46:00.665Z,87.79
2017-10-16T08:47:07.515Z,87.96
2017-10-16T08:48:14.406Z,88.06
2017-10-16T08:49:26.702Z,88.21
2017-10-16T08:50:28.116Z,88.35
2017-10-16T08:51:34.938Z,88.47
2017-10-16T08:52:41.874Z,88.60
2017-10-16T08:53:48.774Z,88.73
2017-10-16T08:54:55.561Z,88.84
2017-10-16T08:56:02.381Z,88.94
2017-10-16T08:57:09.317Z,89.04
2017-10-16T08:58:16.175Z,89.16
2017-10-16T08:59:23.154Z,89.26
2017-10-16T09:00:29.986Z,89.43
2017-10-16T09:01:36.915Z,89.57
2017-10-16T09:02:43.887Z,89.65
2017-10-16T09:03:50.730Z,89.78
2017-10-16T09:04:57.606Z,89.85
2017-10-16T09:06:04.409Z,89.94
2017-10-16T09:07:11.354Z,90.00
2017-10-16T09:08:18.219Z,90.15
2017-10-16T09:09:25.054Z,90.25
2017-10-16T09:10:31.793Z,90.35
2017-10-16T09:11:38.722Z,90.44
2017-10-16T09:12:45.607Z,90.54
2017-10-16T09:13:52.543Z,90.67
2017-10-16T09:14:59.401Z,90.75
2017-10-16T09:16:06.256Z,90.86
2017-10-16T09:17:13.069Z,90.93
2017-10-16T09:18:20.001Z,91.05
2017-10-16T09:19:26.797Z,91.16
2017-10-16T09:20:33.710Z,91.26
2017-10-16T09:21:40.543Z,91.33
2017-10-16T09:22:47.474Z,91.44
2017-10-16T09:23:54.405Z,91.55
2017-10-16T09:25:01.258Z,91.65
2017-10-16T09:26:08.220Z,91.71
2017-10-16T09:27:15.078Z,91.85
2017-10-16T09:28:21.909Z,91.90
2017-10-16T09:29:28.718Z,92.03
2017-10-16T09:30:35.507Z,92.08
2017-10-16T09:31:42.355Z,92.20
2017-10-16T09:32:49.217Z,92.30
2017-10-16T09:33:55.970Z,92.41
2017-10-16T09:35:02.737Z,92.51
2017-10-16T09:36:09.595Z,92.62
2017-10-16T09:37:16.437Z,92.72
2017-10-16T09:38:23.590Z,92.83
2017-10-16T09:39:30.841Z,92.94
2017-10-16T09:40:37.257Z,93.09
2017-10-16T09:41:44.081Z,93.20
2017-10-16T09:42:50.949Z,93.32
2017-10-16T09:43:57.815Z,93.38
2017-10-16T09:45:04.662Z,93.51
2017-10-16T09:46:11.618Z,93.64
2017-10-16T09:47:18.509Z,93.72
2017-10-16T09:48:25.362Z,93.84
2017-10-16T09:49:32.207Z,93.94
2017-10-16T09:50:39.006Z,94.06
2017-10-16T09:51:45.769Z,94.16
2017-10-16T09:52:52.550Z,94.28
2017-10-16T09:53:59.322Z,94.36
2017-10-16T09:55:06.110Z,94.48
2017-10-16T09:56:12.906Z,94.57
2017-10-16T09:57:19.713Z,94.66
2017-10-16T09:58:26.538Z,94.74
2017-10-16T09:59:33.427Z,94.86
2017-10-16T10:00:40.278Z,94.93
2017-10-16T10:01:47.113Z,95.02
2017-10-16T10:02:54.110Z,95.08
2017-10-16T10:04:00.845Z,95.17
2017-10-16T10:05:07.742Z,95.24
2017-10-16T10:06:14.660Z,95.29
2017-10-16T10:07:21.495Z,95.38
2017-10-16T10:08:28.362Z,95.44
2017-10-16T10:09:35.336Z,95.49
2017-10-16T10:10:42.200Z,95.55
2017-10-16T10:11:49.019Z,95.62
2017-10-16T10:12:55.861Z,95.68
2017-10-16T10:14:03.017Z,95.72
2017-10-16T10:15:09.798Z,95.81
2017-10-16T10:16:16.750Z,95.83
2017-10-16T10:17:23.629Z,95.90
2017-10-16T10:18:30.370Z,95.92
2017-10-16T10:19:37.201Z,96.00
2017-10-16T10:20:43.960Z,96.06
2017-10-16T10:21:50.691Z,96.10
2017-10-16T10:22:57.453Z,96.15
2017-10-16T10:24:04.247Z,96.18
2017-10-16T10:25:10.965Z,96.23
2017-10-16T10:26:17.758Z,96.31
2017-10-16T10:27:24.483Z,96.34
2017-10-16T10:28:31.205Z,96.36
2017-10-16T10:29:37.933Z,96.41
2017-10-16T10:30:44.637Z,96.46
2017-10-16T10:31:51.339Z,96.48
2017-10-16T10:32:58.133Z,96.51
2017-10-16T10:34:04.898Z,96.57
2017-10-16T10:35:11.630Z,96.60
2017-10-16T10:36:18.593Z,96.64
2017-10-16T10:37:25.310Z,96.67
2017-10-16T10:38:32.314Z,96.67
2017-10-16T10:39:39.070Z,96.75
2017-10-16T10:40:45.804Z,96.79
2017-10-16T10:41:52.571Z,96.83
2017-10-16T10:42:59.313Z,96.83
2017-10-16T10:44:06.068Z,96.89
2017-10-16T10:45:12.838Z,96.90
2017-10-16T10:46:19.581Z,96.93
2017-10-16T10:47:26.338Z,96.91
2017-10-16T10:48:33.257Z,96.96
2017-10-16T10:49:40.055Z,96.98
2017-10-16T10:50:46.838Z,97.00
2017-10-16T10:51:53.597Z,96.98
2017-10-16T10:53:00.336Z,97.00
2017-10-16T10:54:07.142Z,96.99
2017-10-16T10:55:13.941Z,96.99
2017-10-16T10:56:20.782Z,97.00
2017-10-16T10:57:27.548Z,97.03
2017-10-16T10:58:34.629Z,97.03
2017-10-16T10:59:41.497Z,97.06
2017-10-16T11:00:48.289Z,97.05
2017-10-16T11:01:55.134Z,97.04
2017-10-16T11:03:01.958Z,97.05
2017-10-16T11:04:08.770Z,97.01
2017-10-16T11:05:15.629Z,96.99
2017-10-16T11:06:22.710Z,96.94
2017-10-16T11:07:29.454Z,96.91
2017-10-16T11:08:36.241Z,96.90
2017-10-16T11:09:43.061Z,96.93
2017-10-16T11:10:49.828Z,96.98
2017-10-16T11:11:56.670Z,97.01
2017-10-16T11:13:03.426Z,97.01
2017-10-16T11:14:10.185Z,97.01
2017-10-16T11:15:16.994Z,96.94
2017-10-16T11:16:23.866Z,96.85
2017-10-16T11:17:30.673Z,96.78
2017-10-16T11:18:37.474Z,96.72
2017-10-16T11:19:44.343Z,96.68
2017-10-16T11:20:51.192Z,96.61
2017-10-16T11:21:58.041Z,96.56
2017-10-16T11:23:04.865Z,96.45
2017-10-16T11:24:11.825Z,96.37
2017-10-16T11:25:18.593Z,96.32
2017-10-16T11:26:25.432Z,96.23
2017-10-16T11:27:32.211Z,96.12
2017-10-16T11:28:39.022Z,96.04
2017-10-16T11:29:45.796Z,95.98
2017-10-16T11:30:52.626Z,95.88
2017-10-16T11:31:59.395Z,95.77
2017-10-16T11:33:06.222Z,95.64
2017-10-16T11:34:12.953Z,95.53
2017-10-16T11:35:20.025Z,95.44
2017-10-16T11:36:26.868Z,95.33
2017-10-16T11:37:33.650Z,95.26
2017-10-16T11:38:40.500Z,95.16
2017-10-16T11:39:47.303Z,95.01
2017-10-16T11:40:54.072Z,94.89
2017-10-16T11:42:01.008Z,94.67
2017-10-16T11:43:07.905Z,94.54
2017-10-16T11:44:14.767Z,94.41
2017-10-16T11:45:21.617Z,94.33
2017-10-16T11:46:28.462Z,94.14
2017-10-16T11:47:35.281Z,94.10
2017-10-16T11:48:42.111Z,94.06
2017-10-16T11:49:48.975Z,93.82
2017-10-16T11:50:55.813Z,93.52
2017-10-16T11:52:02.682Z,93.34
2017-10-16T11:53:09.501Z,93.21
2017-10-16T11:54:16.257Z,93.03
2017-10-16T11:55:23.061Z,92.94
2017-10-16T11:56:30.044Z,92.68
2017-10-16T11:57:36.936Z,92.47
2017-10-16T11:58:43.785Z,92.31
2017-10-16T11:59:50.646Z,92.15
2017-10-16T12:00:57.474Z,92.05
2017-10-16T12:02:04.421Z,91.75
2017-10-16T12:03:11.297Z,91.56
2017-10-16T12:04:18.238Z,91.37
2017-10-16T12:05:25.162Z,91.25
2017-10-16T12:06:31.993Z,91.10
2017-10-16T12:07:38.871Z,91.12
2017-10-16T12:08:45.787Z,90.96
2017-10-16T12:09:52.646Z,90.92
2017-10-16T12:10:59.580Z,90.60
2017-10-16T12:12:06.466Z,90.49
2017-10-16T12:13:13.277Z,90.30
2017-10-16T12:14:20.161Z,90.07
2017-10-16T12:15:27.037Z,90.03
2017-10-16T12:16:33.873Z,89.88
2017-10-16T12:17:40.746Z,89.70
2017-10-16T12:18:47.655Z,89.59
2017-10-16T12:19:54.450Z,89.42
2017-10-16T12:21:01.281Z,89.06
2017-10-16T12:22:08.180Z,89.09
2017-10-16T12:23:14.998Z,88.99
2017-10-16T12:24:21.898Z,88.94
2017-10-16T12:25:28.729Z,89.06
2017-10-16T12:26:35.601Z,89.03
2017-10-16T12:27:42.721Z,88.78
2017-10-16T12:28:49.554Z,88.62
2017-10-16T12:29:56.414Z,88.43
2017-10-16T12:31:03.210Z,88.31
2017-10-16T12:32:10.054Z,87.92
2017-10-16T12:33:16.878Z,87.72
2017-10-16T12:34:23.737Z,87.50
2017-10-16T12:35:30.641Z,87.42
2017-10-16T12:36:37.467Z,87.46
2017-10-16T12:37:44.339Z,87.17
2017-10-16T12:38:51.197Z,87.14
2017-10-16T12:39:58.026Z,87.07
2017-10-16T12:41:04.898Z,86.80
2017-10-16T12:42:11.741Z,86.62
2017-10-16T12:43:18.622Z,86.15
2017-10-16T12:44:25.471Z,86.02
2017-10-16T12:45:32.422Z,86.03
2017-10-16T12:46:39.241Z,86.06
2017-10-16T12:47:46.127Z,86.12
2017-10-16T12:48:53.007Z,85.86
2017-10-16T12:49:59.901Z,85.68
2017-10-16T12:51:06.754Z,85.62
2017-10-16T12:52:13.614Z,85.46
2017-10-16T12:53:20.470Z,85.20
2017-10-16T12:54:27.314Z,84.94
2017-10-16T12:55:34.145Z,84.87
2017-10-16T12:56:41.033Z,84.57
2017-10-16T12:57:47.913Z,84.52
2017-10-16T12:58:54.767Z,84.41
2017-10-16T13:00:01.658Z,84.36
2017-10-16T13:01:08.462Z,84.30
2017-10-16T13:02:15.238Z,84.22
2017-10-16T13:03:22.225Z,84.11
2017-10-16T13:04:29.051Z,83.90
2017-10-16T13:05:35.877Z,83.62
2017-10-16T13:06:42.767Z,83.57
2017-10-16T13:07:49.574Z,83.53
2017-10-16T13:08:56.402Z,83.15
2017-10-16T13:10:03.370Z,83.03
2017-10-16T13:11:10.549Z,82.81
2017-10-16T13:12:17.077Z,82.70
2017-10-16T13:13:23.962Z,82.67
2017-10-16T13:14:30.807Z,82.43
2017-10-16T13:15:37.670Z,82.26
2017-10-16T13:16:44.545Z,81.96
2017-10-16T13:17:51.554Z,81.74
2017-10-16T13:18:58.454Z,81.56
2017-10-16T13:20:05.359Z,81.42
2017-10-16T13:21:12.207Z,81.16
2017-10-16T13:22:19.499Z,80.78
2017-10-16T13:23:26.290Z,80.68
2017-10-16T13:24:33.121Z,80.69
2017-10-16T13:25:39.985Z,80.45
2017-10-16T13:26:46.834Z,80.26
2017-10-16T13:27:53.737Z,79.98
2017-10-16T13:29:00.637Z,79.76
2017-10-16T13:30:07.442Z,79.64
2017-10-16T13:31:14.346Z,79.21
2017-10-16T13:32:21.205Z,78.92
2017-10-16T13:33:28.045Z,78.92
2017-10-16T13:34:34.929Z,78.75
2017-10-16T13:35:41.777Z,78.62
2017-10-16T13:36:48.695Z,78.46
2017-10-16T13:37:55.587Z,78.15
2017-10-16T13:39:02.471Z,78.20
2017-10-16T13:40:09.594Z,78.09
2017-10-16T13:41:16.446Z,77.96
2017-10-16T13:42:23.361Z,77.85
2017-10-16T13:43:30.273Z,77.74
2017-10-16T13:44:37.167Z,77.66
2017-10-16T13:45:44.149Z,77.50
2017-10-16T13:46:51.114Z,77.19
2017-10-16T13:47:57.961Z,77.24
2017-10-16T13:49:04.910Z,77.13
2017-10-16T13:50:11.877Z,76.96
2017-10-16T13:51:18.754Z,76.79
2017-10-16T13:52:25.622Z,76.70
2017-10-16T13:53:32.522Z,76.49
2017-10-16T13:54:39.385Z,76.22
2017-10-16T13:55:46.238Z,76.37
2017-10-16T13:56:53.124Z,76.25
2017-10-16T13:57:59.999Z,76.16
2017-10-16T13:59:06.859Z,76.12
2017-10-16T14:00:13.741Z,76.10
2017-10-16T14:01:20.586Z,76.16
2017-10-16T14:02:27.453Z,76.16
2017-10-16T14:03:34.386Z,76.03
2017-10-16T14:04:41.281Z,75.72
2017-10-16T14:05:48.166Z,75.59
2017-10-16T14:06:55.041Z,75.56
2017-10-16T14:08:01.971Z,75.40
2017-10-16T14:09:08.842Z,75.22
2017-10-16T14:10:15.745Z,75.06
2017-10-16T14:11:22.598Z,74.93
2017-10-16T14:12:29.635Z,74.87
2017-10-16T14:13:36.510Z,74.81
2017-10-16T14:14:43.351Z,74.74
2017-10-16T14:15:50.208Z,74.87
2017-10-16T14:16:57.075Z,74.71
2017-10-16T14:18:03.948Z,74.58
2017-10-16T14:19:10.869Z,74.38
2017-10-16T14:20:17.712Z,74.32